Terminal Aerodrome Forecast
Issued by NWS

Home | Current Version | Previous Version | Text Only | Print | Product List | Glossary On
Versions: 1 2 3 4 5 6 7 8 9 10 11 12 13
000
FTUS41 KPHI 301721
TAFPNE
TAF
KPNE 301721Z 3018/3118 22008KT P6SM FEW050 BKN250
     FM310200 23005KT P6SM BKN150
     FM311400 25010KT P6SM SCT050 BKN200=

USA.gov is the U.S. government's official web portal to all federal, state and local government web resources and services.